sensor_id;sensor_type;location;lat;lon;timestamp;P1;durP1;ratioP1;P2;durP2;ratioP2
18125;SDS011;53956;52.442;13.284;2023-03-29T00:02:09;9.23;;;5.83;;
18125;SDS011;53956;52.442;13.284;2023-03-29T00:04:37;11.43;;;5.77;;
18125;SDS011;53956;52.442;13.284;2023-03-29T00:07:06;8.83;;;5.60;;
18125;SDS011;53956;52.442;13.284;2023-03-29T00:09:33;10.53;;;5.80;;
18125;SDS011;53956;52.442;13.284;2023-03-29T00:12:00;12.53;;;5.77;;
18125;SDS011;53956;52.442;13.284;2023-03-29T00:14:27;10.67;;;5.63;;
18125;SDS011;53956;52.442;13.284;2023-03-29T00:16:55;13.27;;;5.30;;
18125;SDS011;53956;52.442;13.284;2023-03-29T00:19:21;6.40;;;5.17;;
18125;SDS011;53956;52.442;13.284;2023-03-29T00:21:48;10.07;;;5.07;;
18125;SDS011;53956;52.442;13.284;2023-03-29T00:24:16;8.03;;;5.10;;
18125;SDS011;53956;52.442;13.284;2023-03-29T00:26:44;10.90;;;5.47;;
18125;SDS011;53956;52.442;13.284;2023-03-29T00:29:11;12.57;;;5.67;;
18125;SDS011;53956;52.442;13.284;2023-03-29T00:31:38;11.93;;;5.33;;
18125;SDS011;53956;52.442;13.284;2023-03-29T00:34:05;10.17;;;5.07;;
18125;SDS011;53956;52.442;13.284;2023-03-29T00:36:32;15.43;;;5.63;;
18125;SDS011;53956;52.442;13.284;2023-03-29T00:38:58;11.13;;;5.03;;
18125;SDS011;53956;52.442;13.284;2023-03-29T00:41:26;8.30;;;4.90;;
18125;SDS011;53956;52.442;13.284;2023-03-29T00:43:53;8.90;;;4.60;;
18125;SDS011;53956;52.442;13.284;2023-03-29T00:46:22;10.40;;;5.30;;
18125;SDS011;53956;52.442;13.284;2023-03-29T00:48:50;7.50;;;4.50;;
18125;SDS011;53956;52.442;13.284;2023-03-29T00:51:18;9.23;;;4.50;;
18125;SDS011;53956;52.442;13.284;2023-03-29T00:53:49;8.87;;;4.73;;
18125;SDS011;53956;52.442;13.284;2023-03-29T00:56:20;7.67;;;4.53;;
18125;SDS011;53956;52.442;13.284;2023-03-29T00:58:55;8.87;;;4.60;;
18125;SDS011;53956;52.442;13.284;2023-03-29T01:01:27;10.23;;;5.30;;
18125;SDS011;53956;52.442;13.284;2023-03-29T01:03:59;10.83;;;4.63;;
18125;SDS011;53956;52.442;13.284;2023-03-29T01:06:29;9.57;;;4.90;;
18125;SDS011;53956;52.442;13.284;2023-03-29T01:08:58;11.00;;;5.00;;
18125;SDS011;53956;52.442;13.284;2023-03-29T01:11:31;12.43;;;5.20;;
18125;SDS011;53956;52.442;13.284;2023-03-29T01:14:05;8.67;;;4.23;;
18125;SDS011;53956;52.442;13.284;2023-03-29T01:16:39;10.97;;;5.07;;
18125;SDS011;53956;52.442;13.284;2023-03-29T01:19:07;8.50;;;4.70;;
18125;SDS011;53956;52.442;13.284;2023-03-29T01:21:38;12.30;;;5.07;;
18125;SDS011;53956;52.442;13.284;2023-03-29T01:24:16;9.10;;;4.57;;
18125;SDS011;53956;52.442;13.284;2023-03-29T01:26:56;9.33;;;4.80;;
18125;SDS011;53956;52.442;13.284;2023-03-29T01:29:32;10.03;;;4.70;;
18125;SDS011;53956;52.442;13.284;2023-03-29T01:32:02;10.67;;;5.13;;
18125;SDS011;53956;52.442;13.284;2023-03-29T01:34:37;6.60;;;4.10;;
18125;SDS011;53956;52.442;13.284;2023-03-29T01:37:10;8.93;;;4.50;;
18125;SDS011;53956;52.442;13.284;2023-03-29T01:39:39;9.83;;;4.70;;
18125;SDS011;53956;52.442;13.284;2023-03-29T01:42:13;9.63;;;4.50;;
18125;SDS011;53956;52.442;13.284;2023-03-29T01:44:50;7.20;;;4.10;;
18125;SDS011;53956;52.442;13.284;2023-03-29T01:47:24;7.43;;;4.30;;
18125;SDS011;53956;52.442;13.284;2023-03-29T01:49:57;9.03;;;4.73;;
18125;SDS011;53956;52.442;13.284;2023-03-29T01:52:31;10.50;;;4.70;;
18125;SDS011;53956;52.442;13.284;2023-03-29T01:55:05;5.23;;;4.03;;
18125;SDS011;53956;52.442;13.284;2023-03-29T01:57:35;12.20;;;4.90;;
18125;SDS011;53956;52.442;13.284;2023-03-29T02:00:06;6.97;;;4.90;;
18125;SDS011;53956;52.442;13.284;2023-03-29T02:02:37;10.20;;;4.07;;
18125;SDS011;53956;52.442;13.284;2023-03-29T02:05:05;12.30;;;4.40;;
18125;SDS011;53956;52.442;13.284;2023-03-29T02:07:34;9.13;;;4.10;;
18125;SDS011;53956;52.442;13.284;2023-03-29T02:10:03;8.10;;;4.20;;
18125;SDS011;53956;52.442;13.284;2023-03-29T02:12:32;8.77;;;4.40;;
18125;SDS011;53956;52.442;13.284;2023-03-29T02:15:00;6.87;;;3.63;;
18125;SDS011;53956;52.442;13.284;2023-03-29T02:17:29;10.63;;;4.47;;
18125;SDS011;53956;52.442;13.284;2023-03-29T02:19:57;11.13;;;4.60;;
18125;SDS011;53956;52.442;13.284;2023-03-29T02:22:29;7.13;;;4.50;;
18125;SDS011;53956;52.442;13.284;2023-03-29T02:25:06;8.37;;;4.30;;
18125;SDS011;53956;52.442;13.284;2023-03-29T02:27:35;10.33;;;4.53;;
18125;SDS011;53956;52.442;13.284;2023-03-29T02:30:02;10.23;;;5.00;;
18125;SDS011;53956;52.442;13.284;2023-03-29T02:32:32;7.23;;;4.27;;
18125;SDS011;53956;52.442;13.284;2023-03-29T02:35:05;9.87;;;4.43;;
18125;SDS011;53956;52.442;13.284;2023-03-29T02:37:37;6.70;;;4.00;;
18125;SDS011;53956;52.442;13.284;2023-03-29T02:40:07;12.10;;;5.07;;
18125;SDS011;53956;52.442;13.284;2023-03-29T02:42:38;10.07;;;4.57;;
18125;SDS011;53956;52.442;13.284;2023-03-29T02:45:06;9.87;;;4.60;;
18125;SDS011;53956;52.442;13.284;2023-03-29T02:47:37;10.23;;;4.87;;
18125;SDS011;53956;52.442;13.284;2023-03-29T02:50:06;9.17;;;4.37;;
18125;SDS011;53956;52.442;13.284;2023-03-29T02:52:34;10.17;;;4.40;;
18125;SDS011;53956;52.442;13.284;2023-03-29T02:55:06;6.80;;;4.57;;
18125;SDS011;53956;52.442;13.284;2023-03-29T02:57:39;7.90;;;4.37;;
18125;SDS011;53956;52.442;13.284;2023-03-29T03:00:08;13.37;;;4.60;;
18125;SDS011;53956;52.442;13.284;2023-03-29T03:02:37;11.40;;;5.00;;
18125;SDS011;53956;52.442;13.284;2023-03-29T03:05:05;6.40;;;4.40;;
18125;SDS011;53956;52.442;13.284;2023-03-29T03:07:33;8.37;;;4.20;;
18125;SDS011;53956;52.442;13.284;2023-03-29T03:10:00;11.90;;;4.87;;
18125;SDS011;53956;52.442;13.284;2023-03-29T03:12:28;9.27;;;4.47;;
18125;SDS011;53956;52.442;13.284;2023-03-29T03:14:55;8.20;;;4.60;;
18125;SDS011;53956;52.442;13.284;2023-03-29T03:17:22;10.13;;;4.57;;
18125;SDS011;53956;52.442;13.284;2023-03-29T03:19:50;8.97;;;4.93;;
18125;SDS011;53956;52.442;13.284;2023-03-29T03:22:17;12.23;;;4.60;;
18125;SDS011;53956;52.442;13.284;2023-03-29T03:24:44;9.07;;;4.53;;
18125;SDS011;53956;52.442;13.284;2023-03-29T03:27:12;8.53;;;5.17;;
18125;SDS011;53956;52.442;13.284;2023-03-29T03:29:39;6.87;;;4.93;;
18125;SDS011;53956;52.442;13.284;2023-03-29T03:32:26;8.53;;;4.70;;
18125;SDS011;53956;52.442;13.284;2023-03-29T03:35:14;14.30;;;5.10;;
18125;SDS011;53956;52.442;13.284;2023-03-29T03:37:40;8.83;;;4.70;;
18125;SDS011;53956;52.442;13.284;2023-03-29T03:40:08;7.77;;;4.73;;
18125;SDS011;53956;52.442;13.284;2023-03-29T03:42:37;8.17;;;4.60;;
18125;SDS011;53956;52.442;13.284;2023-03-29T03:45:04;12.20;;;4.90;;
18125;SDS011;53956;52.442;13.284;2023-03-29T03:47:56;9.70;;;5.00;;
18125;SDS011;53956;52.442;13.284;2023-03-29T03:50:47;9.50;;;4.90;;
18125;SDS011;53956;52.442;13.284;2023-03-29T03:53:16;6.93;;;4.70;;
18125;SDS011;53956;52.442;13.284;2023-03-29T03:56:01;12.70;;;4.77;;
18125;SDS011;53956;52.442;13.284;2023-03-29T03:58:34;6.30;;;4.43;;
18125;SDS011;53956;52.442;13.284;2023-03-29T04:01:02;6.97;;;4.40;;
18125;SDS011;53956;52.442;13.284;2023-03-29T04:03:37;10.73;;;5.17;;
18125;SDS011;53956;52.442;13.284;2023-03-29T04:06:06;10.87;;;5.17;;
18125;SDS011;53956;52.442;13.284;2023-03-29T04:08:56;8.70;;;5.07;;
18125;SDS011;53956;52.442;13.284;2023-03-29T04:11:32;11.07;;;5.80;;
18125;SDS011;53956;52.442;13.284;2023-03-29T04:13:58;15.13;;;5.30;;
18125;SDS011;53956;52.442;13.284;2023-03-29T04:16:46;9.50;;;5.23;;
18125;SDS011;53956;52.442;13.284;2023-03-29T04:19:41;9.07;;;5.60;;
18125;SDS011;53956;52.442;13.284;2023-03-29T04:22:09;9.77;;;5.30;;
18125;SDS011;53956;52.442;13.284;2023-03-29T04:24:36;7.93;;;4.77;;
18125;SDS011;53956;52.442;13.284;2023-03-29T04:27:21;10.23;;;5.20;;
18125;SDS011;53956;52.442;13.284;2023-03-29T04:29:48;10.97;;;5.00;;
18125;SDS011;53956;52.442;13.284;2023-03-29T04:32:23;10.93;;;5.07;;
18125;SDS011;53956;52.442;13.284;2023-03-29T04:35:03;8.77;;;5.30;;
18125;SDS011;53956;52.442;13.284;2023-03-29T04:37:32;10.33;;;5.20;;
18125;SDS011;53956;52.442;13.284;2023-03-29T04:39:59;11.07;;;4.90;;
18125;SDS011;53956;52.442;13.284;2023-03-29T04:42:31;12.53;;;5.70;;
18125;SDS011;53956;52.442;13.284;2023-03-29T04:44:59;10.20;;;5.80;;
18125;SDS011;53956;52.442;13.284;2023-03-29T04:47:43;9.03;;;5.50;;
18125;SDS011;53956;52.442;13.284;2023-03-29T04:50:14;7.63;;;5.60;;
18125;SDS011;53956;52.442;13.284;2023-03-29T04:52:44;12.10;;;5.53;;
18125;SDS011;53956;52.442;13.284;2023-03-29T04:55:11;13.30;;;5.50;;
18125;SDS011;53956;52.442;13.284;2023-03-29T04:57:41;10.27;;;5.77;;
18125;SDS011;53956;52.442;13.284;2023-03-29T05:00:19;9.37;;;5.77;;
18125;SDS011;53956;52.442;13.284;2023-03-29T05:02:59;14.63;;;5.97;;
18125;SDS011;53956;52.442;13.284;2023-03-29T05:05:29;11.57;;;5.73;;
18125;SDS011;53956;52.442;13.284;2023-03-29T05:08:00;13.90;;;6.00;;
18125;SDS011;53956;52.442;13.284;2023-03-29T05:10:36;11.73;;;6.50;;
18125;SDS011;53956;52.442;13.284;2023-03-29T05:13:02;15.73;;;5.57;;
18125;SDS011;53956;52.442;13.284;2023-03-29T05:15:31;9.53;;;5.27;;
18125;SDS011;53956;52.442;13.284;2023-03-29T05:17:57;8.60;;;5.10;;
18125;SDS011;53956;52.442;13.284;2023-03-29T05:20:25;16.13;;;6.03;;
18125;SDS011;53956;52.442;13.284;2023-03-29T05:22:55;11.03;;;6.03;;
18125;SDS011;53956;52.442;13.284;2023-03-29T05:25:47;16.37;;;6.40;;
18125;SDS011;53956;52.442;13.284;2023-03-29T05:28:14;11.37;;;6.10;;
18125;SDS011;53956;52.442;13.284;2023-03-29T05:30:41;16.83;;;5.63;;
18125;SDS011;53956;52.442;13.284;2023-03-29T05:33:17;13.43;;;6.37;;
18125;SDS011;53956;52.442;13.284;2023-03-29T05:35:44;10.70;;;5.97;;
18125;SDS011;53956;52.442;13.284;2023-03-29T05:38:11;9.97;;;5.87;;
18125;SDS011;53956;52.442;13.284;2023-03-29T05:40:38;14.90;;;5.93;;
18125;SDS011;53956;52.442;13.284;2023-03-29T05:43:26;15.40;;;6.33;;
18125;SDS011;53956;52.442;13.284;2023-03-29T05:45:54;12.67;;;6.70;;
18125;SDS011;53956;52.442;13.284;2023-03-29T05:48:21;14.83;;;6.60;;
18125;SDS011;53956;52.442;13.284;2023-03-29T05:50:49;11.43;;;6.47;;
18125;SDS011;53956;52.442;13.284;2023-03-29T05:53:17;13.47;;;6.10;;
18125;SDS011;53956;52.442;13.284;2023-03-29T05:55:44;15.27;;;6.40;;
18125;SDS011;53956;52.442;13.284;2023-03-29T05:58:13;15.03;;;7.00;;
18125;SDS011;53956;52.442;13.284;2023-03-29T06:00:44;10.73;;;6.50;;
18125;SDS011;53956;52.442;13.284;2023-03-29T06:03:28;13.00;;;6.60;;
18125;SDS011;53956;52.442;13.284;2023-03-29T06:05:57;14.97;;;6.87;;
18125;SDS011;53956;52.442;13.284;2023-03-29T06:08:26;10.80;;;6.00;;
18125;SDS011;53956;52.442;13.284;2023-03-29T06:11:03;11.43;;;6.50;;
18125;SDS011;53956;52.442;13.284;2023-03-29T06:14:04;11.33;;;7.13;;
18125;SDS011;53956;52.442;13.284;2023-03-29T06:16:34;10.43;;;6.57;;
18125;SDS011;53956;52.442;13.284;2023-03-29T06:19:01;11.90;;;6.67;;
18125;SDS011;53956;52.442;13.284;2023-03-29T06:21:29;11.73;;;6.83;;
18125;SDS011;53956;52.442;13.284;2023-03-29T06:23:56;10.40;;;6.43;;
18125;SDS011;53956;52.442;13.284;2023-03-29T06:26:25;12.87;;;6.70;;
18125;SDS011;53956;52.442;13.284;2023-03-29T06:28:52;15.53;;;6.87;;
18125;SDS011;53956;52.442;13.284;2023-03-29T06:31:19;13.43;;;6.57;;
18125;SDS011;53956;52.442;13.284;2023-03-29T06:33:50;12.43;;;7.00;;
18125;SDS011;53956;52.442;13.284;2023-03-29T06:36:26;13.60;;;7.40;;
18125;SDS011;53956;52.442;13.284;2023-03-29T06:38:53;14.70;;;6.83;;
18125;SDS011;53956;52.442;13.284;2023-03-29T06:41:48;17.57;;;6.57;;
18125;SDS011;53956;52.442;13.284;2023-03-29T06:44:23;13.80;;;6.53;;
18125;SDS011;53956;52.442;13.284;2023-03-29T06:46:58;16.57;;;6.63;;
18125;SDS011;53956;52.442;13.284;2023-03-29T06:49:28;9.10;;;6.20;;
18125;SDS011;53956;52.442;13.284;2023-03-29T06:52:20;14.30;;;6.37;;
18125;SDS011;53956;52.442;13.284;2023-03-29T06:54:46;12.80;;;6.37;;
18125;SDS011;53956;52.442;13.284;2023-03-29T06:57:13;13.37;;;6.30;;
18125;SDS011;53956;52.442;13.284;2023-03-29T06:59:40;14.00;;;5.87;;
18125;SDS011;53956;52.442;13.284;2023-03-29T07:02:21;14.23;;;6.43;;
18125;SDS011;53956;52.442;13.284;2023-03-29T07:04:55;13.37;;;6.43;;
18125;SDS011;53956;52.442;13.284;2023-03-29T07:07:32;10.83;;;6.17;;
18125;SDS011;53956;52.442;13.284;2023-03-29T07:10:25;13.13;;;6.20;;
18125;SDS011;53956;52.442;13.284;2023-03-29T07:13:14;13.47;;;5.87;;
18125;SDS011;53956;52.442;13.284;2023-03-29T07:15:42;13.10;;;6.47;;
18125;SDS011;53956;52.442;13.284;2023-03-29T07:18:15;12.60;;;6.50;;
18125;SDS011;53956;52.442;13.284;2023-03-29T07:20:44;13.57;;;6.20;;
18125;SDS011;53956;52.442;13.284;2023-03-29T07:23:12;16.00;;;5.93;;
18125;SDS011;53956;52.442;13.284;2023-03-29T07:25:38;13.00;;;5.57;;
18125;SDS011;53956;52.442;13.284;2023-03-29T07:28:06;11.83;;;5.63;;
18125;SDS011;53956;52.442;13.284;2023-03-29T07:30:33;13.00;;;6.03;;
18125;SDS011;53956;52.442;13.284;2023-03-29T07:33:16;12.57;;;5.17;;
18125;SDS011;53956;52.442;13.284;2023-03-29T07:36:05;12.00;;;5.23;;
18125;SDS011;53956;52.442;13.284;2023-03-29T07:38:33;9.37;;;5.47;;
18125;SDS011;53956;52.442;13.284;2023-03-29T07:41:05;11.10;;;5.33;;
18125;SDS011;53956;52.442;13.284;2023-03-29T07:43:45;10.37;;;5.30;;
18125;SDS011;53956;52.442;13.284;2023-03-29T07:46:14;10.33;;;5.30;;
18125;SDS011;53956;52.442;13.284;2023-03-29T07:48:42;11.73;;;5.40;;
18125;SDS011;53956;52.442;13.284;2023-03-29T07:51:14;10.53;;;5.40;;
18125;SDS011;53956;52.442;13.284;2023-03-29T07:53:43;11.17;;;5.37;;
18125;SDS011;53956;52.442;13.284;2023-03-29T07:56:25;11.70;;;5.40;;
18125;SDS011;53956;52.442;13.284;2023-03-29T07:59:05;10.03;;;5.33;;
18125;SDS011;53956;52.442;13.284;2023-03-29T08:01:32;9.63;;;4.90;;
18125;SDS011;53956;52.442;13.284;2023-03-29T08:04:22;10.97;;;5.50;;
18125;SDS011;53956;52.442;13.284;2023-03-29T08:07:26;16.50;;;5.90;;
18125;SDS011;53956;52.442;13.284;2023-03-29T08:10:13;7.97;;;5.30;;
18125;SDS011;53956;52.442;13.284;2023-03-29T08:12:54;9.57;;;4.87;;
18125;SDS011;53956;52.442;13.284;2023-03-29T08:15:29;10.20;;;5.33;;
18125;SDS011;53956;52.442;13.284;2023-03-29T08:17:56;11.50;;;5.67;;
18125;SDS011;53956;52.442;13.284;2023-03-29T08:20:24;9.83;;;5.03;;
18125;SDS011;53956;52.442;13.284;2023-03-29T08:22:57;12.17;;;5.63;;
18125;SDS011;53956;52.442;13.284;2023-03-29T08:25:40;9.80;;;4.97;;
18125;SDS011;53956;52.442;13.284;2023-03-29T08:28:08;8.80;;;5.10;;
18125;SDS011;53956;52.442;13.284;2023-03-29T08:30:43;6.87;;;4.30;;
18125;SDS011;53956;52.442;13.284;2023-03-29T08:33:11;11.57;;;4.57;;
18125;SDS011;53956;52.442;13.284;2023-03-29T08:35:39;8.47;;;4.47;;
18125;SDS011;53956;52.442;13.284;2023-03-29T08:38:19;8.13;;;4.47;;
18125;SDS011;53956;52.442;13.284;2023-03-29T08:40:47;9.27;;;4.67;;
18125;SDS011;53956;52.442;13.284;2023-03-29T08:46:18;8.27;;;4.67;;
18125;SDS011;53956;52.442;13.284;2023-03-29T08:48:58;10.43;;;5.37;;
18125;SDS011;53956;52.442;13.284;2023-03-29T08:51:31;9.17;;;4.80;;
18125;SDS011;53956;52.442;13.284;2023-03-29T08:54:04;6.33;;;4.40;;
18125;SDS011;53956;52.442;13.284;2023-03-29T08:56:59;7.50;;;4.67;;
18125;SDS011;53956;52.442;13.284;2023-03-29T08:59:35;6.03;;;4.60;;
18125;SDS011;53956;52.442;13.284;2023-03-29T09:02:09;8.60;;;4.63;;
18125;SDS011;53956;52.442;13.284;2023-03-29T09:04:42;8.30;;;4.87;;
18125;SDS011;53956;52.442;13.284;2023-03-29T09:07:44;7.50;;;4.97;;
18125;SDS011;53956;52.442;13.284;2023-03-29T09:10:15;6.40;;;4.67;;
18125;SDS011;53956;52.442;13.284;2023-03-29T09:12:49;9.00;;;4.57;;
18125;SDS011;53956;52.442;13.284;2023-03-29T09:15:26;6.53;;;4.40;;
18125;SDS011;53956;52.442;13.284;2023-03-29T09:18:28;7.43;;;5.00;;
18125;SDS011;53956;52.442;13.284;2023-03-29T09:21:06;9.27;;;4.67;;
18125;SDS011;53956;52.442;13.284;2023-03-29T09:23:47;8.67;;;5.00;;
18125;SDS011;53956;52.442;13.284;2023-03-29T09:26:38;12.17;;;5.20;;
18125;SDS011;53956;52.442;13.284;2023-03-29T09:29:28;6.80;;;5.17;;
18125;SDS011;53956;52.442;13.284;2023-03-29T09:32:13;11.17;;;5.13;;
18125;SDS011;53956;52.442;13.284;2023-03-29T09:34:51;8.63;;;5.10;;
18125;SDS011;53956;52.442;13.284;2023-03-29T09:37:27;8.90;;;5.17;;
18125;SDS011;53956;52.442;13.284;2023-03-29T09:39:57;7.23;;;4.97;;
18125;SDS011;53956;52.442;13.284;2023-03-29T09:42:41;12.33;;;5.87;;
18125;SDS011;53956;52.442;13.284;2023-03-29T09:45:10;8.70;;;5.27;;
18125;SDS011;53956;52.442;13.284;2023-03-29T09:47:44;7.50;;;4.77;;
18125;SDS011;53956;52.442;13.284;2023-03-29T09:50:15;5.87;;;4.57;;
18125;SDS011;53956;52.442;13.284;2023-03-29T09:52:46;16.13;;;5.17;;
18125;SDS011;53956;52.442;13.284;2023-03-29T09:55:19;7.63;;;4.67;;
18125;SDS011;53956;52.442;13.284;2023-03-29T09:58:03;8.97;;;5.20;;
18125;SDS011;53956;52.442;13.284;2023-03-29T10:00:42;10.67;;;5.20;;
18125;SDS011;53956;52.442;13.284;2023-03-29T10:03:16;8.00;;;4.80;;
18125;SDS011;53956;52.442;13.284;2023-03-29T10:05:50;11.63;;;5.30;;
18125;SDS011;53956;52.442;13.284;2023-03-29T10:08:21;7.47;;;4.87;;
18125;SDS011;53956;52.442;13.284;2023-03-29T10:10:52;8.77;;;5.20;;
18125;SDS011;53956;52.442;13.284;2023-03-29T10:13:25;7.87;;;5.20;;
18125;SDS011;53956;52.442;13.284;2023-03-29T10:16:01;7.07;;;5.10;;
18125;SDS011;53956;52.442;13.284;2023-03-29T10:18:29;5.87;;;5.00;;
18125;SDS011;53956;52.442;13.284;2023-03-29T10:20:57;7.50;;;5.10;;
18125;SDS011;53956;52.442;13.284;2023-03-29T10:23:28;11.77;;;4.90;;
18125;SDS011;53956;52.442;13.284;2023-03-29T10:25:56;8.40;;;4.63;;
18125;SDS011;53956;52.442;13.284;2023-03-29T10:28:24;7.20;;;4.83;;
18125;SDS011;53956;52.442;13.284;2023-03-29T10:30:55;7.00;;;5.00;;
18125;SDS011;53956;52.442;13.284;2023-03-29T10:33:26;11.87;;;5.00;;
18125;SDS011;53956;52.442;13.284;2023-03-29T10:35:56;7.30;;;4.80;;
18125;SDS011;53956;52.442;13.284;2023-03-29T10:38:24;7.37;;;4.97;;
18125;SDS011;53956;52.442;13.284;2023-03-29T10:40:53;5.80;;;5.00;;
18125;SDS011;53956;52.442;13.284;2023-03-29T10:43:21;10.03;;;5.70;;
18125;SDS011;53956;52.442;13.284;2023-03-29T10:45:52;7.70;;;5.40;;
18125;SDS011;53956;52.442;13.284;2023-03-29T10:48:23;8.37;;;5.80;;
18125;SDS011;53956;52.442;13.284;2023-03-29T10:50:56;8.97;;;5.80;;
18125;SDS011;53956;52.442;13.284;2023-03-29T10:53:24;9.77;;;5.60;;
18125;SDS011;53956;52.442;13.284;2023-03-29T10:55:54;8.47;;;5.40;;
18125;SDS011;53956;52.442;13.284;2023-03-29T10:58:34;12.80;;;6.00;;
18125;SDS011;53956;52.442;13.284;2023-03-29T11:01:09;15.17;;;5.90;;
18125;SDS011;53956;52.442;13.284;2023-03-29T11:03:47;6.30;;;5.17;;
18125;SDS011;53956;52.442;13.284;2023-03-29T11:06:43;7.93;;;5.23;;
18125;SDS011;53956;52.442;13.284;2023-03-29T11:09:17;7.17;;;5.63;;
18125;SDS011;53956;52.442;13.284;2023-03-29T11:11:54;8.07;;;5.43;;
18125;SDS011;53956;52.442;13.284;2023-03-29T11:14:30;6.10;;;5.30;;
18125;SDS011;53956;52.442;13.284;2023-03-29T11:17:09;9.00;;;6.00;;
18125;SDS011;53956;52.442;13.284;2023-03-29T11:19:52;8.27;;;5.57;;
18125;SDS011;53956;52.442;13.284;2023-03-29T11:22:28;7.63;;;5.13;;
18125;SDS011;53956;52.442;13.284;2023-03-29T11:25:15;7.43;;;5.77;;
18125;SDS011;53956;52.442;13.284;2023-03-29T11:27:52;7.00;;;5.60;;
18125;SDS011;53956;52.442;13.284;2023-03-29T11:30:24;7.53;;;5.70;;
18125;SDS011;53956;52.442;13.284;2023-03-29T11:33:03;8.70;;;5.93;;
18125;SDS011;53956;52.442;13.284;2023-03-29T11:35:47;7.17;;;5.90;;
18125;SDS011;53956;52.442;13.284;2023-03-29T11:38:20;8.50;;;5.23;;
18125;SDS011;53956;52.442;13.284;2023-03-29T11:40:54;7.53;;;5.13;;
18125;SDS011;53956;52.442;13.284;2023-03-29T11:43:26;9.73;;;5.40;;
18125;SDS011;53956;52.442;13.284;2023-03-29T11:45:59;7.73;;;6.03;;
18125;SDS011;53956;52.442;13.284;2023-03-29T11:48:33;7.97;;;5.90;;
18125;SDS011;53956;52.442;13.284;2023-03-29T11:51:04;9.40;;;6.47;;
18125;SDS011;53956;52.442;13.284;2023-03-29T11:53:39;7.97;;;5.50;;
18125;SDS011;53956;52.442;13.284;2023-03-29T11:56:11;25.80;;;8.23;;
18125;SDS011;53956;52.442;13.284;2023-03-29T11:58:42;71.67;;;12.40;;
18125;SDS011;53956;52.442;13.284;2023-03-29T12:01:14;28.67;;;9.83;;
18125;SDS011;53956;52.442;13.284;2023-03-29T12:03:47;22.53;;;6.97;;
18125;SDS011;53956;52.442;13.284;2023-03-29T12:06:19;9.60;;;5.57;;
18125;SDS011;53956;52.442;13.284;2023-03-29T12:08:49;7.70;;;5.63;;
18125;SDS011;53956;52.442;13.284;2023-03-29T12:11:21;8.20;;;5.63;;
18125;SDS011;53956;52.442;13.284;2023-03-29T12:13:53;9.50;;;5.63;;
18125;SDS011;53956;52.442;13.284;2023-03-29T12:16:24;7.50;;;5.63;;
18125;SDS011;53956;52.442;13.284;2023-03-29T12:18:58;7.60;;;5.67;;
18125;SDS011;53956;52.442;13.284;2023-03-29T12:21:29;9.77;;;5.83;;
18125;SDS011;53956;52.442;13.284;2023-03-29T12:23:58;8.97;;;5.20;;
18125;SDS011;53956;52.442;13.284;2023-03-29T12:26:29;7.93;;;5.63;;
18125;SDS011;53956;52.442;13.284;2023-03-29T12:29:09;8.27;;;5.37;;
18125;SDS011;53956;52.442;13.284;2023-03-29T12:31:52;7.63;;;5.10;;
18125;SDS011;53956;52.442;13.284;2023-03-29T12:34:37;7.33;;;5.40;;
18125;SDS011;53956;52.442;13.284;2023-03-29T12:37:43;10.10;;;5.37;;
18125;SDS011;53956;52.442;13.284;2023-03-29T12:40:38;7.90;;;5.40;;
18125;SDS011;53956;52.442;13.284;2023-03-29T12:43:26;7.07;;;5.27;;
18125;SDS011;53956;52.442;13.284;2023-03-29T12:46:21;7.63;;;5.03;;
18125;SDS011;53956;52.442;13.284;2023-03-29T12:48:52;9.43;;;5.00;;
18125;SDS011;53956;52.442;13.284;2023-03-29T12:51:27;8.07;;;4.57;;
18125;SDS011;53956;52.442;13.284;2023-03-29T12:53:59;7.20;;;4.97;;
18125;SDS011;53956;52.442;13.284;2023-03-29T12:56:35;8.30;;;5.10;;
18125;SDS011;53956;52.442;13.284;2023-03-29T12:59:05;5.90;;;5.17;;
18125;SDS011;53956;52.442;13.284;2023-03-29T13:01:51;8.63;;;5.17;;
18125;SDS011;53956;52.442;13.284;2023-03-29T13:04:32;8.87;;;4.60;;
18125;SDS011;53956;52.442;13.284;2023-03-29T13:07:03;9.10;;;4.93;;
18125;SDS011;53956;52.442;13.284;2023-03-29T13:09:32;6.27;;;4.43;;
18125;SDS011;53956;52.442;13.284;2023-03-29T13:12:05;9.80;;;5.17;;
18125;SDS011;53956;52.442;13.284;2023-03-29T13:14:34;7.87;;;5.03;;
18125;SDS011;53956;52.442;13.284;2023-03-29T13:17:03;9.20;;;5.30;;
18125;SDS011;53956;52.442;13.284;2023-03-29T13:19:33;6.43;;;4.63;;
18125;SDS011;53956;52.442;13.284;2023-03-29T13:22:10;9.30;;;5.10;;
18125;SDS011;53956;52.442;13.284;2023-03-29T13:24:50;8.97;;;5.13;;
18125;SDS011;53956;52.442;13.284;2023-03-29T13:27:32;7.13;;;4.83;;
18125;SDS011;53956;52.442;13.284;2023-03-29T13:30:19;7.93;;;4.87;;
18125;SDS011;53956;52.442;13.284;2023-03-29T13:32:54;7.73;;;5.10;;
18125;SDS011;53956;52.442;13.284;2023-03-29T13:35:35;8.83;;;5.00;;
18125;SDS011;53956;52.442;13.284;2023-03-29T13:38:13;7.70;;;4.90;;
18125;SDS011;53956;52.442;13.284;2023-03-29T13:40:45;8.57;;;5.03;;
18125;SDS011;53956;52.442;13.284;2023-03-29T13:43:28;7.90;;;5.03;;
18125;SDS011;53956;52.442;13.284;2023-03-29T13:46:04;7.03;;;4.80;;
18125;SDS011;53956;52.442;13.284;2023-03-29T13:48:48;7.33;;;4.90;;
18125;SDS011;53956;52.442;13.284;2023-03-29T13:51:26;8.60;;;5.27;;
18125;SDS011;53956;52.442;13.284;2023-03-29T13:53:59;7.47;;;5.07;;
18125;SDS011;53956;52.442;13.284;2023-03-29T13:56:32;9.63;;;5.03;;
18125;SDS011;53956;52.442;13.284;2023-03-29T13:59:04;9.17;;;5.03;;
18125;SDS011;53956;52.442;13.284;2023-03-29T14:01:38;6.67;;;5.20;;
18125;SDS011;53956;52.442;13.284;2023-03-29T14:04:11;9.30;;;5.03;;
18125;SDS011;53956;52.442;13.284;2023-03-29T14:06:42;7.77;;;5.07;;
18125;SDS011;53956;52.442;13.284;2023-03-29T14:09:18;8.90;;;5.00;;
18125;SDS011;53956;52.442;13.284;2023-03-29T14:11:46;8.37;;;4.93;;
18125;SDS011;53956;52.442;13.284;2023-03-29T14:14:14;10.47;;;5.60;;
18125;SDS011;53956;52.442;13.284;2023-03-29T14:16:42;11.90;;;5.80;;
18125;SDS011;53956;52.442;13.284;2023-03-29T14:19:11;7.33;;;5.53;;
18125;SDS011;53956;52.442;13.284;2023-03-29T14:21:42;8.43;;;5.67;;
18125;SDS011;53956;52.442;13.284;2023-03-29T14:24:10;7.87;;;5.87;;
18125;SDS011;53956;52.442;13.284;2023-03-29T14:26:43;7.87;;;6.00;;
18125;SDS011;53956;52.442;13.284;2023-03-29T14:29:12;7.30;;;5.57;;
18125;SDS011;53956;52.442;13.284;2023-03-29T14:31:40;7.33;;;5.50;;
18125;SDS011;53956;52.442;13.284;2023-03-29T14:34:10;10.33;;;6.37;;
18125;SDS011;53956;52.442;13.284;2023-03-29T14:36:37;10.67;;;6.20;;
18125;SDS011;53956;52.442;13.284;2023-03-29T14:39:07;9.47;;;6.30;;
18125;SDS011;53956;52.442;13.284;2023-03-29T14:41:38;9.00;;;6.40;;
18125;SDS011;53956;52.442;13.284;2023-03-29T14:44:08;7.67;;;6.10;;
18125;SDS011;53956;52.442;13.284;2023-03-29T14:46:38;12.00;;;6.67;;
18125;SDS011;53956;52.442;13.284;2023-03-29T14:49:05;9.07;;;6.77;;
18125;SDS011;53956;52.442;13.284;2023-03-29T14:51:32;8.57;;;7.03;;
18125;SDS011;53956;52.442;13.284;2023-03-29T14:53:59;10.93;;;6.97;;
18125;SDS011;53956;52.442;13.284;2023-03-29T14:56:28;9.67;;;7.43;;
18125;SDS011;53956;52.442;13.284;2023-03-29T14:58:56;9.87;;;7.50;;
18125;SDS011;53956;52.442;13.284;2023-03-29T15:01:25;9.37;;;7.00;;
18125;SDS011;53956;52.442;13.284;2023-03-29T15:03:54;10.10;;;7.10;;
18125;SDS011;53956;52.442;13.284;2023-03-29T15:06:22;10.37;;;7.53;;
18125;SDS011;53956;52.442;13.284;2023-03-29T15:08:50;12.87;;;7.50;;